sensor_id;sensor_type;location;lat;lon;timestamp;P1;durP1;ratioP1;P2;durP2;ratioP2
7049;SDS011;22263;52.260;10.548;2023-04-03T00:01:38;0.50;;;0.50;;
7049;SDS011;22263;52.260;10.548;2023-04-03T00:04:07;0.60;;;0.60;;
7049;SDS011;22263;52.260;10.548;2023-04-03T00:06:36;0.57;;;0.57;;
7049;SDS011;22263;52.260;10.548;2023-04-03T00:09:04;0.70;;;0.70;;
7049;SDS011;22263;52.260;10.548;2023-04-03T00:11:35;0.83;;;0.83;;
7049;SDS011;22263;52.260;10.548;2023-04-03T00:14:04;0.60;;;0.60;;
7049;SDS011;22263;52.260;10.548;2023-04-03T00:16:34;0.60;;;0.60;;
7049;SDS011;22263;52.260;10.548;2023-04-03T00:19:03;0.70;;;0.70;;
7049;SDS011;22263;52.260;10.548;2023-04-03T00:21:31;0.60;;;0.60;;
7049;SDS011;22263;52.260;10.548;2023-04-03T00:24:00;0.60;;;0.60;;
7049;SDS011;22263;52.260;10.548;2023-04-03T00:26:28;0.60;;;0.60;;
7049;SDS011;22263;52.260;10.548;2023-04-03T00:28:57;0.50;;;0.50;;
7049;SDS011;22263;52.260;10.548;2023-04-03T00:31:26;0.70;;;0.70;;
7049;SDS011;22263;52.260;10.548;2023-04-03T00:33:56;0.63;;;0.63;;
7049;SDS011;22263;52.260;10.548;2023-04-03T00:36:24;0.75;;;0.75;;
7049;SDS011;22263;52.260;10.548;2023-04-03T00:38:53;0.60;;;0.60;;
7049;SDS011;22263;52.260;10.548;2023-04-03T00:41:21;0.52;;;0.52;;
7049;SDS011;22263;52.260;10.548;2023-04-03T00:43:51;0.80;;;0.80;;
7049;SDS011;22263;52.260;10.548;2023-04-03T00:46:26;0.70;;;0.70;;
7049;SDS011;22263;52.260;10.548;2023-04-03T00:48:58;0.50;;;0.50;;
7049;SDS011;22263;52.260;10.548;2023-04-03T00:51:27;0.60;;;0.60;;
7049;SDS011;22263;52.260;10.548;2023-04-03T00:53:56;0.80;;;0.80;;
7049;SDS011;22263;52.260;10.548;2023-04-03T00:56:28;0.63;;;0.63;;
7049;SDS011;22263;52.260;10.548;2023-04-03T00:58:58;0.50;;;0.50;;
7049;SDS011;22263;52.260;10.548;2023-04-03T01:01:30;0.60;;;0.60;;
7049;SDS011;22263;52.260;10.548;2023-04-03T01:04:01;0.52;;;0.52;;
7049;SDS011;22263;52.260;10.548;2023-04-03T01:06:32;0.83;;;0.83;;
7049;SDS011;22263;52.260;10.548;2023-04-03T01:09:06;0.85;;;0.85;;
7049;SDS011;22263;52.260;10.548;2023-04-03T01:11:35;0.60;;;0.60;;
7049;SDS011;22263;52.260;10.548;2023-04-03T01:14:04;0.50;;;0.50;;
7049;SDS011;22263;52.260;10.548;2023-04-03T01:16:32;0.80;;;0.80;;
7049;SDS011;22263;52.260;10.548;2023-04-03T01:19:05;0.50;;;0.50;;
7049;SDS011;22263;52.260;10.548;2023-04-03T01:21:53;0.70;;;0.70;;
7049;SDS011;22263;52.260;10.548;2023-04-03T01:24:32;0.70;;;0.70;;
7049;SDS011;22263;52.260;10.548;2023-04-03T01:27:05;0.70;;;0.70;;
7049;SDS011;22263;52.260;10.548;2023-04-03T01:29:35;0.70;;;0.70;;
7049;SDS011;22263;52.260;10.548;2023-04-03T01:32:07;0.70;;;0.70;;
7049;SDS011;22263;52.260;10.548;2023-04-03T01:34:39;0.80;;;0.80;;
7049;SDS011;22263;52.260;10.548;2023-04-03T01:37:08;0.73;;;0.73;;
7049;SDS011;22263;52.260;10.548;2023-04-03T01:39:36;0.57;;;0.57;;
7049;SDS011;22263;52.260;10.548;2023-04-03T01:42:05;0.70;;;0.70;;
7049;SDS011;22263;52.260;10.548;2023-04-03T01:44:38;0.57;;;0.57;;
7049;SDS011;22263;52.260;10.548;2023-04-03T01:47:09;0.80;;;0.80;;
7049;SDS011;22263;52.260;10.548;2023-04-03T01:49:39;0.60;;;0.60;;
7049;SDS011;22263;52.260;10.548;2023-04-03T01:52:08;0.70;;;0.70;;
7049;SDS011;22263;52.260;10.548;2023-04-03T01:54:37;0.63;;;0.63;;
7049;SDS011;22263;52.260;10.548;2023-04-03T01:57:05;0.63;;;0.63;;
7049;SDS011;22263;52.260;10.548;2023-04-03T01:59:35;0.70;;;0.70;;
7049;SDS011;22263;52.260;10.548;2023-04-03T02:02:03;0.63;;;0.63;;
7049;SDS011;22263;52.260;10.548;2023-04-03T02:04:34;0.70;;;0.70;;
7049;SDS011;22263;52.260;10.548;2023-04-03T02:07:03;0.77;;;0.77;;
7049;SDS011;22263;52.260;10.548;2023-04-03T02:09:32;0.60;;;0.60;;
7049;SDS011;22263;52.260;10.548;2023-04-03T02:12:01;0.53;;;0.53;;
7049;SDS011;22263;52.260;10.548;2023-04-03T02:14:31;0.70;;;0.70;;
7049;SDS011;22263;52.260;10.548;2023-04-03T02:17:00;0.80;;;0.80;;
7049;SDS011;22263;52.260;10.548;2023-04-03T02:19:36;0.70;;;0.70;;
7049;SDS011;22263;52.260;10.548;2023-04-03T02:22:05;0.60;;;0.60;;
7049;SDS011;22263;52.260;10.548;2023-04-03T02:24:34;0.77;;;0.77;;
7049;SDS011;22263;52.260;10.548;2023-04-03T02:27:05;0.80;;;0.80;;
7049;SDS011;22263;52.260;10.548;2023-04-03T02:29:33;0.60;;;0.60;;
7049;SDS011;22263;52.260;10.548;2023-04-03T02:32:03;0.80;;;0.80;;
7049;SDS011;22263;52.260;10.548;2023-04-03T02:34:33;0.80;;;0.80;;
7049;SDS011;22263;52.260;10.548;2023-04-03T02:37:05;0.70;;;0.70;;
7049;SDS011;22263;52.260;10.548;2023-04-03T02:39:35;0.80;;;0.80;;
7049;SDS011;22263;52.260;10.548;2023-04-03T02:42:03;0.70;;;0.70;;
7049;SDS011;22263;52.260;10.548;2023-04-03T02:44:33;0.60;;;0.60;;
7049;SDS011;22263;52.260;10.548;2023-04-03T02:47:02;0.70;;;0.70;;
7049;SDS011;22263;52.260;10.548;2023-04-03T02:49:32;0.60;;;0.60;;
7049;SDS011;22263;52.260;10.548;2023-04-03T02:52:01;0.70;;;0.70;;
7049;SDS011;22263;52.260;10.548;2023-04-03T02:54:31;0.70;;;0.70;;
7049;SDS011;22263;52.260;10.548;2023-04-03T02:57:03;0.70;;;0.70;;
7049;SDS011;22263;52.260;10.548;2023-04-03T02:59:35;0.80;;;0.80;;
7049;SDS011;22263;52.260;10.548;2023-04-03T03:02:07;0.80;;;0.80;;
7049;SDS011;22263;52.260;10.548;2023-04-03T03:04:36;0.70;;;0.70;;
7049;SDS011;22263;52.260;10.548;2023-04-03T03:07:06;0.70;;;0.70;;
7049;SDS011;22263;52.260;10.548;2023-04-03T03:09:39;0.67;;;0.67;;
7049;SDS011;22263;52.260;10.548;2023-04-03T03:12:07;0.70;;;0.70;;
7049;SDS011;22263;52.260;10.548;2023-04-03T03:14:36;0.60;;;0.60;;
7049;SDS011;22263;52.260;10.548;2023-04-03T03:17:05;0.60;;;0.60;;
7049;SDS011;22263;52.260;10.548;2023-04-03T03:19:34;0.77;;;0.77;;
7049;SDS011;22263;52.260;10.548;2023-04-03T03:22:03;0.70;;;0.70;;
7049;SDS011;22263;52.260;10.548;2023-04-03T03:24:31;0.50;;;0.50;;
7049;SDS011;22263;52.260;10.548;2023-04-03T03:27:02;0.73;;;0.73;;
7049;SDS011;22263;52.260;10.548;2023-04-03T03:29:31;0.60;;;0.60;;
7049;SDS011;22263;52.260;10.548;2023-04-03T03:32:02;0.70;;;0.70;;
7049;SDS011;22263;52.260;10.548;2023-04-03T03:34:30;0.60;;;0.60;;
7049;SDS011;22263;52.260;10.548;2023-04-03T03:37:00;0.70;;;0.70;;
7049;SDS011;22263;52.260;10.548;2023-04-03T03:39:29;0.80;;;0.80;;
7049;SDS011;22263;52.260;10.548;2023-04-03T03:41:57;0.68;;;0.68;;
7049;SDS011;22263;52.260;10.548;2023-04-03T03:44:28;0.70;;;0.70;;
7049;SDS011;22263;52.260;10.548;2023-04-03T03:46:57;0.77;;;0.77;;
7049;SDS011;22263;52.260;10.548;2023-04-03T03:49:28;0.70;;;0.70;;
7049;SDS011;22263;52.260;10.548;2023-04-03T03:51:57;0.60;;;0.60;;
7049;SDS011;22263;52.260;10.548;2023-04-03T03:54:26;1.00;;;1.00;;
7049;SDS011;22263;52.260;10.548;2023-04-03T03:56:55;0.80;;;0.80;;
7049;SDS011;22263;52.260;10.548;2023-04-03T03:59:24;0.70;;;0.70;;
7049;SDS011;22263;52.260;10.548;2023-04-03T04:01:55;0.50;;;0.50;;
7049;SDS011;22263;52.260;10.548;2023-04-03T04:04:23;0.60;;;0.60;;
7049;SDS011;22263;52.260;10.548;2023-04-03T04:06:52;0.70;;;0.70;;
7049;SDS011;22263;52.260;10.548;2023-04-03T04:09:21;0.70;;;0.70;;
7049;SDS011;22263;52.260;10.548;2023-04-03T04:11:50;0.53;;;0.53;;
7049;SDS011;22263;52.260;10.548;2023-04-03T04:14:19;0.70;;;0.70;;
7049;SDS011;22263;52.260;10.548;2023-04-03T04:16:49;0.83;;;0.83;;
7049;SDS011;22263;52.260;10.548;2023-04-03T04:19:24;0.90;;;0.90;;
7049;SDS011;22263;52.260;10.548;2023-04-03T04:21:53;0.73;;;0.73;;
7049;SDS011;22263;52.260;10.548;2023-04-03T04:24:22;0.70;;;0.70;;
7049;SDS011;22263;52.260;10.548;2023-04-03T04:26:53;0.70;;;0.70;;
7049;SDS011;22263;52.260;10.548;2023-04-03T04:29:22;0.70;;;0.70;;
7049;SDS011;22263;52.260;10.548;2023-04-03T04:31:51;0.80;;;0.80;;
7049;SDS011;22263;52.260;10.548;2023-04-03T04:34:21;0.70;;;0.70;;
7049;SDS011;22263;52.260;10.548;2023-04-03T04:36:54;0.70;;;0.70;;
7049;SDS011;22263;52.260;10.548;2023-04-03T04:39:24;0.60;;;0.60;;
7049;SDS011;22263;52.260;10.548;2023-04-03T04:41:55;0.77;;;0.77;;
7049;SDS011;22263;52.260;10.548;2023-04-03T04:44:26;0.80;;;0.80;;
7049;SDS011;22263;52.260;10.548;2023-04-03T04:46:55;0.90;;;0.90;;
7049;SDS011;22263;52.260;10.548;2023-04-03T04:49:27;0.80;;;0.80;;
7049;SDS011;22263;52.260;10.548;2023-04-03T04:51:58;0.80;;;0.80;;
7049;SDS011;22263;52.260;10.548;2023-04-03T04:54:30;0.70;;;0.70;;
7049;SDS011;22263;52.260;10.548;2023-04-03T04:56:59;0.50;;;0.50;;
7049;SDS011;22263;52.260;10.548;2023-04-03T04:59:28;0.60;;;0.60;;
7049;SDS011;22263;52.260;10.548;2023-04-03T05:01:58;0.70;;;0.70;;
7049;SDS011;22263;52.260;10.548;2023-04-03T05:04:28;0.80;;;0.80;;
7049;SDS011;22263;52.260;10.548;2023-04-03T05:07:04;0.70;;;0.70;;
7049;SDS011;22263;52.260;10.548;2023-04-03T05:09:35;0.70;;;0.70;;
7049;SDS011;22263;52.260;10.548;2023-04-03T05:12:04;0.80;;;0.80;;
7049;SDS011;22263;52.260;10.548;2023-04-03T05:14:38;0.60;;;0.60;;
7049;SDS011;22263;52.260;10.548;2023-04-03T05:17:08;0.70;;;0.70;;
7049;SDS011;22263;52.260;10.548;2023-04-03T05:19:42;0.70;;;0.70;;
7049;SDS011;22263;52.260;10.548;2023-04-03T05:22:11;0.87;;;0.87;;
7049;SDS011;22263;52.260;10.548;2023-04-03T05:24:40;0.67;;;0.67;;
7049;SDS011;22263;52.260;10.548;2023-04-03T05:27:09;0.70;;;0.70;;
7049;SDS011;22263;52.260;10.548;2023-04-03T05:29:42;0.63;;;0.63;;
7049;SDS011;22263;52.260;10.548;2023-04-03T05:32:15;0.90;;;0.90;;
7049;SDS011;22263;52.260;10.548;2023-04-03T05:34:49;0.67;;;0.67;;
7049;SDS011;22263;52.260;10.548;2023-04-03T05:37:19;0.70;;;0.70;;
7049;SDS011;22263;52.260;10.548;2023-04-03T05:39:50;0.90;;;0.90;;
7049;SDS011;22263;52.260;10.548;2023-04-03T05:42:18;0.60;;;0.60;;
7049;SDS011;22263;52.260;10.548;2023-04-03T05:44:47;0.77;;;0.77;;
7049;SDS011;22263;52.260;10.548;2023-04-03T05:47:16;0.80;;;0.80;;
7049;SDS011;22263;52.260;10.548;2023-04-03T05:49:44;0.80;;;0.80;;
7049;SDS011;22263;52.260;10.548;2023-04-03T05:52:20;0.80;;;0.80;;
7049;SDS011;22263;52.260;10.548;2023-04-03T05:54:52;0.60;;;0.60;;
7049;SDS011;22263;52.260;10.548;2023-04-03T05:57:24;0.60;;;0.60;;
7049;SDS011;22263;52.260;10.548;2023-04-03T05:59:53;0.70;;;0.70;;
7049;SDS011;22263;52.260;10.548;2023-04-03T06:02:23;0.53;;;0.53;;
7049;SDS011;22263;52.260;10.548;2023-04-03T06:04:53;0.60;;;0.60;;
7049;SDS011;22263;52.260;10.548;2023-04-03T06:07:23;0.80;;;0.80;;
7049;SDS011;22263;52.260;10.548;2023-04-03T06:09:54;0.90;;;0.90;;
7049;SDS011;22263;52.260;10.548;2023-04-03T06:12:24;0.80;;;0.80;;
7049;SDS011;22263;52.260;10.548;2023-04-03T06:14:55;0.63;;;0.63;;
7049;SDS011;22263;52.260;10.548;2023-04-03T06:17:23;0.60;;;0.60;;
7049;SDS011;22263;52.260;10.548;2023-04-03T06:19:52;0.50;;;0.50;;
7049;SDS011;22263;52.260;10.548;2023-04-03T06:22:23;0.63;;;0.63;;
7049;SDS011;22263;52.260;10.548;2023-04-03T06:24:55;0.60;;;0.60;;
7049;SDS011;22263;52.260;10.548;2023-04-03T06:27:24;0.60;;;0.60;;
7049;SDS011;22263;52.260;10.548;2023-04-03T06:29:52;0.70;;;0.70;;
7049;SDS011;22263;52.260;10.548;2023-04-03T06:32:21;0.53;;;0.53;;
7049;SDS011;22263;52.260;10.548;2023-04-03T06:34:49;0.60;;;0.60;;
7049;SDS011;22263;52.260;10.548;2023-04-03T06:37:20;0.50;;;0.50;;
7049;SDS011;22263;52.260;10.548;2023-04-03T06:39:53;0.57;;;0.57;;
7049;SDS011;22263;52.260;10.548;2023-04-03T06:42:23;0.60;;;0.60;;
7049;SDS011;22263;52.260;10.548;2023-04-03T06:44:58;0.50;;;0.50;;
7049;SDS011;22263;52.260;10.548;2023-04-03T06:47:26;0.70;;;0.70;;
7049;SDS011;22263;52.260;10.548;2023-04-03T06:49:54;0.60;;;0.60;;
7049;SDS011;22263;52.260;10.548;2023-04-03T06:52:23;0.68;;;0.68;;
7049;SDS011;22263;52.260;10.548;2023-04-03T06:54:54;0.40;;;0.40;;
7049;SDS011;22263;52.260;10.548;2023-04-03T06:57:23;0.40;;;0.40;;
7049;SDS011;22263;52.260;10.548;2023-04-03T06:59:52;0.50;;;0.50;;
7049;SDS011;22263;52.260;10.548;2023-04-03T07:02:21;0.43;;;0.43;;
7049;SDS011;22263;52.260;10.548;2023-04-03T07:04:50;0.57;;;0.57;;
7049;SDS011;22263;52.260;10.548;2023-04-03T07:07:18;0.50;;;0.50;;
7049;SDS011;22263;52.260;10.548;2023-04-03T07:09:47;0.50;;;0.50;;
7049;SDS011;22263;52.260;10.548;2023-04-03T07:12:17;0.50;;;0.50;;
7049;SDS011;22263;52.260;10.548;2023-04-03T07:14:46;0.50;;;0.50;;
7049;SDS011;22263;52.260;10.548;2023-04-03T07:17:14;0.70;;;0.70;;
7049;SDS011;22263;52.260;10.548;2023-04-03T07:19:42;0.70;;;0.70;;
7049;SDS011;22263;52.260;10.548;2023-04-03T07:22:11;0.63;;;0.63;;
7049;SDS011;22263;52.260;10.548;2023-04-03T07:24:39;0.50;;;0.50;;
7049;SDS011;22263;52.260;10.548;2023-04-03T07:27:08;0.50;;;0.50;;
7049;SDS011;22263;52.260;10.548;2023-04-03T07:29:40;0.55;;;0.55;;
7049;SDS011;22263;52.260;10.548;2023-04-03T07:32:08;0.55;;;0.55;;
7049;SDS011;22263;52.260;10.548;2023-04-03T07:34:37;0.60;;;0.60;;
7049;SDS011;22263;52.260;10.548;2023-04-03T07:37:05;0.47;;;0.47;;
7049;SDS011;22263;52.260;10.548;2023-04-03T07:39:35;0.52;;;0.52;;
7049;SDS011;22263;52.260;10.548;2023-04-03T07:42:03;0.40;;;0.40;;
7049;SDS011;22263;52.260;10.548;2023-04-03T07:44:32;0.50;;;0.50;;
7049;SDS011;22263;52.260;10.548;2023-04-03T07:47:03;0.50;;;0.50;;
7049;SDS011;22263;52.260;10.548;2023-04-03T07:49:31;0.40;;;0.40;;
7049;SDS011;22263;52.260;10.548;2023-04-03T07:52:03;0.40;;;0.40;;
7049;SDS011;22263;52.260;10.548;2023-04-03T07:54:32;0.50;;;0.50;;
7049;SDS011;22263;52.260;10.548;2023-04-03T07:57:02;0.40;;;0.40;;
7049;SDS011;22263;52.260;10.548;2023-04-03T07:59:31;0.32;;;0.32;;
7049;SDS011;22263;52.260;10.548;2023-04-03T08:01:59;0.40;;;0.40;;
7049;SDS011;22263;52.260;10.548;2023-04-03T08:04:32;0.50;;;0.50;;
7049;SDS011;22263;52.260;10.548;2023-04-03T08:07:01;0.60;;;0.60;;
7049;SDS011;22263;52.260;10.548;2023-04-03T08:09:30;0.40;;;0.40;;
7049;SDS011;22263;52.260;10.548;2023-04-03T08:11:58;0.40;;;0.40;;
7049;SDS011;22263;52.260;10.548;2023-04-03T08:14:27;0.45;;;0.45;;
7049;SDS011;22263;52.260;10.548;2023-04-03T08:17:00;0.40;;;0.40;;
7049;SDS011;22263;52.260;10.548;2023-04-03T08:19:32;0.30;;;0.30;;
7049;SDS011;22263;52.260;10.548;2023-04-03T08:22:01;0.30;;;0.30;;
7049;SDS011;22263;52.260;10.548;2023-04-03T08:24:30;0.40;;;0.40;;
7049;SDS011;22263;52.260;10.548;2023-04-03T08:26:59;0.30;;;0.30;;
7049;SDS011;22263;52.260;10.548;2023-04-03T08:29:28;0.30;;;0.30;;
7049;SDS011;22263;52.260;10.548;2023-04-03T08:31:58;0.30;;;0.30;;
7049;SDS011;22263;52.260;10.548;2023-04-03T08:34:27;0.30;;;0.30;;
7049;SDS011;22263;52.260;10.548;2023-04-03T08:36:57;0.40;;;0.40;;
7049;SDS011;22263;52.260;10.548;2023-04-03T08:39:26;0.35;;;0.35;;
7049;SDS011;22263;52.260;10.548;2023-04-03T08:41:55;0.40;;;0.40;;
7049;SDS011;22263;52.260;10.548;2023-04-03T08:44:30;0.30;;;0.30;;
7049;SDS011;22263;52.260;10.548;2023-04-03T08:47:11;0.40;;;0.40;;
7049;SDS011;22263;52.260;10.548;2023-04-03T08:49:48;0.40;;;0.40;;
7049;SDS011;22263;52.260;10.548;2023-04-03T08:52:22;0.30;;;0.30;;
7049;SDS011;22263;52.260;10.548;2023-04-03T08:55:03;0.30;;;0.30;;
7049;SDS011;22263;52.260;10.548;2023-04-03T08:57:36;0.40;;;0.40;;
7049;SDS011;22263;52.260;10.548;2023-04-03T09:00:15;0.30;;;0.30;;
7049;SDS011;22263;52.260;10.548;2023-04-03T09:02:46;0.30;;;0.30;;
7049;SDS011;22263;52.260;10.548;2023-04-03T09:05:17;0.30;;;0.30;;
7049;SDS011;22263;52.260;10.548;2023-04-03T09:07:52;0.30;;;0.30;;
7049;SDS011;22263;52.260;10.548;2023-04-03T09:10:28;0.30;;;0.30;;
7049;SDS011;22263;52.260;10.548;2023-04-03T09:13:02;0.30;;;0.30;;
7049;SDS011;22263;52.260;10.548;2023-04-03T09:15:36;0.30;;;0.30;;
7049;SDS011;22263;52.260;10.548;2023-04-03T09:18:05;0.30;;;0.30;;
7049;SDS011;22263;52.260;10.548;2023-04-03T09:20:43;0.30;;;0.30;;
7049;SDS011;22263;52.260;10.548;2023-04-03T09:23:21;0.30;;;0.30;;
7049;SDS011;22263;52.260;10.548;2023-04-03T09:25:56;0.30;;;0.30;;
7049;SDS011;22263;52.260;10.548;2023-04-03T09:28:31;0.40;;;0.40;;
7049;SDS011;22263;52.260;10.548;2023-04-03T09:31:17;0.30;;;0.30;;
7049;SDS011;22263;52.260;10.548;2023-04-03T09:33:49;0.30;;;0.30;;
7049;SDS011;22263;52.260;10.548;2023-04-03T09:39:12;0.40;;;0.40;;
7049;SDS011;22263;52.260;10.548;2023-04-03T09:41:43;0.40;;;0.40;;
7049;SDS011;22263;52.260;10.548;2023-04-03T09:44:24;0.40;;;0.40;;
7049;SDS011;22263;52.260;10.548;2023-04-03T09:46:53;0.30;;;0.30;;
7049;SDS011;22263;52.260;10.548;2023-04-03T09:49:22;0.50;;;0.50;;
7049;SDS011;22263;52.260;10.548;2023-04-03T09:51:50;0.40;;;0.40;;
7049;SDS011;22263;52.260;10.548;2023-04-03T09:54:35;0.20;;;0.20;;
7049;SDS011;22263;52.260;10.548;2023-04-03T09:57:08;0.32;;;0.32;;
7049;SDS011;22263;52.260;10.548;2023-04-03T09:59:46;0.40;;;0.40;;
7049;SDS011;22263;52.260;10.548;2023-04-03T10:02:29;0.40;;;0.40;;
7049;SDS011;22263;52.260;10.548;2023-04-03T10:05:03;0.25;;;0.25;;
7049;SDS011;22263;52.260;10.548;2023-04-03T10:07:36;0.30;;;0.30;;
7049;SDS011;22263;52.260;10.548;2023-04-03T10:10:20;0.40;;;0.40;;
7049;SDS011;22263;52.260;10.548;2023-04-03T10:13:03;0.40;;;0.40;;
7049;SDS011;22263;52.260;10.548;2023-04-03T10:15:36;0.40;;;0.40;;
7049;SDS011;22263;52.260;10.548;2023-04-03T10:18:26;0.38;;;0.38;;
7049;SDS011;22263;52.260;10.548;2023-04-03T10:20:59;0.40;;;0.40;;
7049;SDS011;22263;52.260;10.548;2023-04-03T10:23:44;0.50;;;0.50;;
7049;SDS011;22263;52.260;10.548;2023-04-03T10:26:23;0.50;;;0.50;;
7049;SDS011;22263;52.260;10.548;2023-04-03T10:29:03;0.30;;;0.30;;
7049;SDS011;22263;52.260;10.548;2023-04-03T10:31:43;0.47;;;0.47;;
7049;SDS011;22263;52.260;10.548;2023-04-03T10:34:17;0.50;;;0.50;;
7049;SDS011;22263;52.260;10.548;2023-04-03T10:36:51;0.40;;;0.40;;
7049;SDS011;22263;52.260;10.548;2023-04-03T10:39:27;0.50;;;0.50;;
7049;SDS011;22263;52.260;10.548;2023-04-03T10:42:05;0.60;;;0.60;;
7049;SDS011;22263;52.260;10.548;2023-04-03T10:44:59;0.40;;;0.40;;
7049;SDS011;22263;52.260;10.548;2023-04-03T10:47:37;0.50;;;0.50;;
7049;SDS011;22263;52.260;10.548;2023-04-03T10:50:20;0.50;;;0.50;;
7049;SDS011;22263;52.260;10.548;2023-04-03T10:52:56;0.50;;;0.50;;
7049;SDS011;22263;52.260;10.548;2023-04-03T10:55:32;0.40;;;0.40;;
7049;SDS011;22263;52.260;10.548;2023-04-03T10:58:16;0.50;;;0.50;;
7049;SDS011;22263;52.260;10.548;2023-04-03T11:00:48;0.50;;;0.50;;
7049;SDS011;22263;52.260;10.548;2023-04-03T11:03:23;0.30;;;0.30;;
7049;SDS011;22263;52.260;10.548;2023-04-03T11:05:59;0.40;;;0.40;;
7049;SDS011;22263;52.260;10.548;2023-04-03T11:08:32;0.40;;;0.40;;
7049;SDS011;22263;52.260;10.548;2023-04-03T11:11:05;0.32;;;0.32;;
7049;SDS011;22263;52.260;10.548;2023-04-03T11:13:40;0.30;;;0.30;;
7049;SDS011;22263;52.260;10.548;2023-04-03T11:16:14;0.40;;;0.40;;
7049;SDS011;22263;52.260;10.548;2023-04-03T11:18:49;0.40;;;0.40;;
7049;SDS011;22263;52.260;10.548;2023-04-03T11:21:24;0.40;;;0.40;;
7049;SDS011;22263;52.260;10.548;2023-04-03T11:23:57;0.40;;;0.40;;
7049;SDS011;22263;52.260;10.548;2023-04-03T11:26:27;0.50;;;0.50;;
7049;SDS011;22263;52.260;10.548;2023-04-03T11:29:03;0.40;;;0.40;;
7049;SDS011;22263;52.260;10.548;2023-04-03T11:31:38;0.50;;;0.50;;
7049;SDS011;22263;52.260;10.548;2023-04-03T11:34:20;0.50;;;0.50;;
7049;SDS011;22263;52.260;10.548;2023-04-03T11:36:58;0.50;;;0.50;;
7049;SDS011;22263;52.260;10.548;2023-04-03T11:39:28;0.50;;;0.50;;
7049;SDS011;22263;52.260;10.548;2023-04-03T11:42:13;0.40;;;0.40;;
7049;SDS011;22263;52.260;10.548;2023-04-03T11:44:45;0.40;;;0.40;;
7049;SDS011;22263;52.260;10.548;2023-04-03T11:47:43;0.40;;;0.40;;
7049;SDS011;22263;52.260;10.548;2023-04-03T11:55:56;0.30;;;0.30;;
7049;SDS011;22263;52.260;10.548;2023-04-03T11:58:26;0.30;;;0.30;;
7049;SDS011;22263;52.260;10.548;2023-04-03T12:00:57;0.30;;;0.30;;
7049;SDS011;22263;52.260;10.548;2023-04-03T12:03:32;0.30;;;0.30;;
7049;SDS011;22263;52.260;10.548;2023-04-03T12:09:26;0.30;;;0.30;;
7049;SDS011;22263;52.260;10.548;2023-04-03T12:12:25;0.35;;;0.35;;
7049;SDS011;22263;52.260;10.548;2023-04-03T12:15:11;0.30;;;0.30;;
7049;SDS011;22263;52.260;10.548;2023-04-03T12:17:50;0.30;;;0.30;;
7049;SDS011;22263;52.260;10.548;2023-04-03T12:23:28;0.40;;;0.40;;
7049;SDS011;22263;52.260;10.548;2023-04-03T12:26:02;0.30;;;0.30;;
7049;SDS011;22263;52.260;10.548;2023-04-03T12:28:37;0.30;;;0.30;;
7049;SDS011;22263;52.260;10.548;2023-04-03T12:31:08;0.30;;;0.30;;
7049;SDS011;22263;52.260;10.548;2023-04-03T12:33:44;0.30;;;0.30;;
7049;SDS011;22263;52.260;10.548;2023-04-03T12:36:28;0.30;;;0.30;;
7049;SDS011;22263;52.260;10.548;2023-04-03T12:39:06;0.40;;;0.40;;
7049;SDS011;22263;52.260;10.548;2023-04-03T12:41:53;0.40;;;0.40;;
7049;SDS011;22263;52.260;10.548;2023-04-03T12:44:37;0.40;;;0.40;;
7049;SDS011;22263;52.260;10.548;2023-04-03T12:47:25;0.40;;;0.40;;
7049;SDS011;22263;52.260;10.548;2023-04-03T12:49:59;0.50;;;0.50;;
7049;SDS011;22263;52.260;10.548;2023-04-03T12:52:31;0.30;;;0.30;;
7049;SDS011;22263;52.260;10.548;2023-04-03T12:55:03;0.32;;;0.32;;
7049;SDS011;22263;52.260;10.548;2023-04-03T12:57:46;0.40;;;0.40;;
7049;SDS011;22263;52.260;10.548;2023-04-03T13:00:19;0.40;;;0.40;;
7049;SDS011;22263;52.260;10.548;2023-04-03T13:02:50;0.40;;;0.40;;
7049;SDS011;22263;52.260;10.548;2023-04-03T13:05:19;0.30;;;0.30;;
7049;SDS011;22263;52.260;10.548;2023-04-03T13:07:49;0.35;;;0.35;;
7049;SDS011;22263;52.260;10.548;2023-04-03T13:10:20;0.40;;;0.40;;
7049;SDS011;22263;52.260;10.548;2023-04-03T13:12:51;0.30;;;0.30;;
7049;SDS011;22263;52.260;10.548;2023-04-03T13:15:23;0.40;;;0.40;;
7049;SDS011;22263;52.260;10.548;2023-04-03T13:17:53;0.38;;;0.38;;
7049;SDS011;22263;52.260;10.548;2023-04-03T13:20:23;0.40;;;0.40;;
7049;SDS011;22263;52.260;10.548;2023-04-03T13:22:56;0.38;;;0.38;;
7049;SDS011;22263;52.260;10.548;2023-04-03T13:25:28;0.30;;;0.30;;
7049;SDS011;22263;52.260;10.548;2023-04-03T13:28:02;0.30;;;0.30;;
7049;SDS011;22263;52.260;10.548;2023-04-03T13:30:40;0.38;;;0.38;;
7049;SDS011;22263;52.260;10.548;2023-04-03T13:33:23;0.30;;;0.30;;
7049;SDS011;22263;52.260;10.548;2023-04-03T13:35:57;0.30;;;0.30;;
7049;SDS011;22263;52.260;10.548;2023-04-03T13:38:30;0.30;;;0.30;;
7049;SDS011;22263;52.260;10.548;2023-04-03T13:41:03;0.40;;;0.40;;
7049;SDS011;22263;52.260;10.548;2023-04-03T13:43:37;0.40;;;0.40;;
7049;SDS011;22263;52.260;10.548;2023-04-03T13:46:21;0.40;;;0.40;;
7049;SDS011;22263;52.260;10.548;2023-04-03T13:48:53;0.40;;;0.40;;
7049;SDS011;22263;52.260;10.548;2023-04-03T13:51:24;0.40;;;0.40;;
7049;SDS011;22263;52.260;10.548;2023-04-03T13:53:55;0.40;;;0.40;;
7049;SDS011;22263;52.260;10.548;2023-04-03T13:56:26;0.40;;;0.40;;
7049;SDS011;22263;52.260;10.548;2023-04-03T13:59:06;0.30;;;0.30;;
7049;SDS011;22263;52.260;10.548;2023-04-03T14:01:51;0.40;;;0.40;;
7049;SDS011;22263;52.260;10.548;2023-04-03T14:04:22;0.30;;;0.30;;
7049;SDS011;22263;52.260;10.548;2023-04-03T14:06:54;0.30;;;0.30;;
7049;SDS011;22263;52.260;10.548;2023-04-03T14:09:24;0.40;;;0.40;;
7049;SDS011;22263;52.260;10.548;2023-04-03T14:11:54;0.40;;;0.40;;
7049;SDS011;22263;52.260;10.548;2023-04-03T14:14:30;0.40;;;0.40;;
7049;SDS011;22263;52.260;10.548;2023-04-03T14:17:10;0.30;;;0.30;;
7049;SDS011;22263;52.260;10.548;2023-04-03T14:19:51;0.30;;;0.30;;
7049;SDS011;22263;52.260;10.548;2023-04-03T14:22:21;0.40;;;0.40;;
7049;SDS011;22263;52.260;10.548;2023-04-03T14:24:51;0.40;;;0.40;;
7049;SDS011;22263;52.260;10.548;2023-04-03T14:27:21;0.40;;;0.40;;
7049;SDS011;22263;52.260;10.548;2023-04-03T14:29:53;0.40;;;0.40;;
7049;SDS011;22263;52.260;10.548;2023-04-03T14:32:23;0.30;;;0.30;;
7049;SDS011;22263;52.260;10.548;2023-04-03T14:34:52;0.40;;;0.40;;
7049;SDS011;22263;52.260;10.548;2023-04-03T14:37:23;0.40;;;0.40;;
7049;SDS011;22263;52.260;10.548;2023-04-03T14:39:53;0.40;;;0.40;;
7049;SDS011;22263;52.260;10.548;2023-04-03T14:42:25;0.40;;;0.40;;
7049;SDS011;22263;52.260;10.548;2023-04-03T14:44:58;0.40;;;0.40;;
7049;SDS011;22263;52.260;10.548;2023-04-03T14:47:28;0.40;;;0.40;;
7049;SDS011;22263;52.260;10.548;2023-04-03T14:49:58;0.40;;;0.40;;
7049;SDS011;22263;52.260;10.548;2023-04-03T14:52:28;0.40;;;0.40;;
7049;SDS011;22263;52.260;10.548;2023-04-03T14:54:58;0.50;;;0.50;;
7049;SDS011;22263;52.260;10.548;2023-04-03T14:57:27;0.40;;;0.40;;
7049;SDS011;22263;52.260;10.548;2023-04-03T14:59:59;0.40;;;0.40;;
7049;SDS011;22263;52.260;10.548;2023-04-03T15:02:30;0.30;;;0.30;;
7049;SDS011;22263;52.260;10.548;2023-04-03T15:05:01;0.40;;;0.40;;
7049;SDS011;22263;52.260;10.548;2023-04-03T15:07:32;0.40;;;0.40;;
7049;SDS011;22263;52.260;10.548;2023-04-03T15:10:05;0.40;;;0.40;;
7049;SDS011;22263;52.260;10.548;2023-04-03T15:12:43;0.40;;;0.40;;
7049;SDS011;22263;52.260;10.548;2023-04-03T15:15:17;0.50;;;0.50;;
7049;SDS011;22263;52.260;10.548;2023-04-03T15:17:48;0.40;;;0.40;;
7049;SDS011;22263;52.260;10.548;2023-04-03T15:20:21;0.50;;;0.50;;
7049;SDS011;22263;52.260;10.548;2023-04-03T15:22:50;0.40;;;0.40;;
7049;SDS011;22263;52.260;10.548;2023-04-03T15:25:19;0.40;;;0.40;;
7049;SDS011;22263;52.260;10.548;2023-04-03T15:27:47;0.35;;;0.35;;
7049;SDS011;22263;52.260;10.548;2023-04-03T15:30:18;0.47;;;0.47;;
7049;SDS011;22263;52.260;10.548;2023-04-03T15:32:47;0.50;;;0.50;;